Metar Cercanos

 

LEPA - Palma De Mallorc, Spain
Distance from station: ONO 38km
Actualización: Mon, 02-Aug-2021 11:00pm CEST
Few Clouds
Few Clouds
 Viento del NE
Viento: NE 9 km/h
Temperatura: 24°C
Rocío: 18°C
Humedad: 69%
Barómetro: 1016 hPa
Clouds: Few Clouds
Visibility: 10 km
Cloud details: Few Clouds 762 m
2021/08/02 21:00 LEPA 022100Z 04005KT 320V070 9999 FEW025 24/18 Q1016 NOSIG
LEMH - Mahon/Menorca Is, Spain
Distance from station: ENE 105km
Actualización: Mon, 02-Aug-2021 11:00pm CEST
Few Clouds
Few Clouds
 Viento del E
Viento: E 11 km/h
Temperatura: 23°C
Rocío: 18°C
Humedad: 74%
Barómetro: 1017 hPa
Clouds: Few Clouds
Visibility: 10 km
Cloud details: Few Clouds 914 m
2021/08/02 21:00 LEMH 022100Z 08006KT 9999 FEW030 23/18 Q1017
 
LEIB - Ibiza/Es Codola, Spain
Distance from station: OSO 165km
Actualización: Mon, 02-Aug-2021 11:00pm CEST
Few Clouds
Few Clouds
 Viento del E
Viento: E 15 km/h
Temperatura: 25°C
Rocío: 20°C
Humedad: 74%
Barómetro: 1016 hPa
Clouds: Few Clouds
Visibility: 10 km
Cloud details: Few Clouds 762 m
2021/08/02 21:00 LEIB 022100Z 09008KT 9999 FEW025 25/20 Q1016 NOSIG
LEBL - Barcelona Airpor, Spain
Distance from station: NNO 225km
Actualización: Mon, 02-Aug-2021 11:00pm CEST
Muy nuboso
Muy nuboso
 Viento del SE
Viento: SE 9 km/h
Temperatura: 25°C
Rocío: 20°C
Humedad: 74%
Barómetro: 1017 hPa
Clouds: Muy nuboso
Visibility: 10 km
Cloud details: Few Clouds 549 m
Parcialmente nuboso 671 m
Muy nuboso 914 m
2021/08/02 21:00 LEBL 022100Z 13005KT 9999 FEW018 SCT022 BKN030 25/20 Q1017 NOSIG
 
LEVC - Valencia (civ/Mi, Spain
Distance from station: NO 188km
Actualización: Mon, 02-Aug-2021 11:00pm CEST
Parcialmente nuboso
Parcialmente nuboso
 Viento del ENE
Viento: ENE 9 km/h
Temperatura: 25°C
Rocío: 19°C
Humedad: 69%
Barómetro: 1017 hPa
Clouds: Parcialmente nuboso
Visibility: 10 km
Cloud details: Parcialmente nuboso 762 m
2021/08/02 21:00 LEVC 022100Z 07005KT 9999 SCT025 25/19 Q1017 NOSIG
LEGE - Gerona/Costa Bra, Spain
Distance from station: N 276km
Actualización: Mon, 02-Aug-2021 11:00pm CEST
Cubierto
Cubierto
 Viento del varies
Viento: varies 4 km/h
Temperatura: 22°C
Rocío: 18°C
Humedad: 78%
Barómetro: 1017 hPa
Clouds: Cubierto
Visibility: 10 km
Cloud details: Cubierto 610 m
2021/08/02 21:00 LEGE 022100Z VRB02KT 9999 OVC020 22/18 Q1017
 
LEAL - Alicante/El Alte, Spain
Distance from station: OSO 344km
Actualización: Mon, 02-Aug-2021 11:00pm CEST
Parcialmente nuboso
Parcialmente nuboso
 Viento del ENE
Viento: ENE 11 km/h
Temperatura: 25°C
Rocío: 20°C
Humedad: 74%
Barómetro: 1016 hPa
Clouds: Parcialmente nuboso
Visibility: 10 km
Cloud details: Parcialmente nuboso 762 m
2021/08/02 21:00 LEAL 022100Z 07006KT 9999 SCT025 25/20 Q1016 NOSIG
LEAM - Almeria Airport, Spain
Distance from station: SSO 56km
Actualización: Mon, 02-Aug-2021 11:00pm CEST
Despejado
Despejado
 Viento del E
Viento: E 13 km/h
Temperatura: 26°C
Rocío: 21°C
Humedad: 74%
Barómetro: 1015 hPa
Resumen: Despejado
Visibility: greater than 10 km
2021/08/02 21:00 LEAM 022100Z AUTO 08007KT 050V110 CAVOK 26/21 Q1015
 
LEZG - Zaragoza (mil/Ci, Spain
Distance from station: NO 431km
Actualización: Mon, 02-Aug-2021 11:00pm CEST
Few Clouds
Few Clouds
 Viento del calm
Viento: Calma
Temperatura: 24°C
Rocío: 13°C
Humedad: 50%
Barómetro: 1016 hPa
Clouds: Few Clouds
Visibility: 10 km
Cloud details: Few Clouds 2591 m
2021/08/02 21:00 LEZG 022100Z 00000KT 9999 FEW085 24/13 Q1016
LEMD - Madrid/Barajas, Spain
Distance from station: ONO 234km
Actualización: Mon, 02-Aug-2021 11:00pm CEST
Despejado
Despejado
 Viento del SO
Viento: SO 7 km/h
Temperatura: 27°C
Rocío: 2°C
Humedad: 20%
Barómetro: 1016 hPa
Resumen: Despejado
Visibility: greater than 10 km
2021/08/02 21:00 LEMD 022100Z 22004KT CAVOK 27/02 Q1016 NOSIG
 
LEGR - Granada Airport, Spain
Distance from station: OSO 62km
Actualización: Mon, 02-Aug-2021 11:00pm CEST
Despejado
Despejado
 Viento del varies
Viento: varies 4 km/h
Temperatura: 24°C
Rocío: 14°C
Humedad: 54%
Barómetro: 1017 hPa
Resumen: Despejado
Visibility: greater than 10 km
2021/08/02 21:00 LEGR 022100Z VRB02KT CAVOK 24/14 Q1017
LEMG - Malaga (civ/Mil), Spain
Distance from station: OSO 227km
Actualización: Mon, 02-Aug-2021 11:00pm CEST
Despejado
Despejado
 Viento del E
Viento: E 7 km/h
Temperatura: 23°C
Rocío: 19°C
Humedad: 78%
Barómetro: 1015 hPa
Resumen: Despejado
Visibility: greater than 10 km
2021/08/02 21:00 LEMG 022100Z 09004KT CAVOK 23/19 Q1015 NOSIG
 
LEZL - Sevilla (civ/Mil, Spain
Distance from station: S 318km
Actualización: Mon, 02-Aug-2021 11:00pm CEST
Despejado
Despejado
 Viento del O
Viento: O 11 km/h
Temperatura: 27°C
Indice Calor: 27°C
Rocío: 13°C
Humedad: 42%
Barómetro: 1014 hPa
Resumen: Despejado
Visibility: greater than 10 km
2021/08/02 21:00 LEZL 022100Z 26006KT CAVOK 27/13 Q1014 NOSIG
LEVT - Vitoria, Spain
Distance from station: NO 226km
Actualización: Mon, 02-Aug-2021 11:00pm CEST
Few Clouds
Few Clouds
 Viento del NNO
Viento: NNO 6 km/h
Temperatura: 15°C
Rocío: 12°C
Humedad: 82%
Barómetro: 1020 hPa
Clouds: Few Clouds
Visibility: 10 km
Cloud details: Few Clouds 1067 m
2021/08/02 21:00 LEVT 022100Z 33003KT 9999 FEW035 15/12 Q1020
 
LEBB - Bilbao/Sondica, Spain
Distance from station: NNO 235km
Actualización: Mon, 02-Aug-2021 11:00pm CEST
Muy nuboso
Muy nuboso
 Viento del calm
Viento: Calma
Temperatura: 20°C
Rocío: 16°C
Humedad: 78%
Barómetro: 1019 hPa
Clouds: Muy nuboso
Visibility: 10 km
Cloud details: Few Clouds 792 m
Muy nuboso 1737 m
2021/08/02 21:00 LEBB 022100Z 00000KT 9999 FEW026 BKN057 20/16 Q1019 NOSIG
LESO - San Sebastian/Fu, Spain
Distance from station: N 231km
Actualización: Mon, 02-Aug-2021 11:00pm CEST
Few Clouds
Few Clouds
 Viento del varies
Viento: varies 4 km/h
Temperatura: 18°C
Rocío: 15°C
Humedad: 83%
Barómetro: 1019 hPa
Clouds: Few Clouds
Visibility: 10 km
Cloud details: Few Clouds 823 m
2021/08/02 21:00 LESO 022100Z AUTO VRB02KT 9999 FEW027 18/15 Q1019
 
LEVD - Valladolid(Mil/C, Spain
Distance from station: ONO 239km
Actualización: Mon, 02-Aug-2021 11:00pm CEST
Despejado
Despejado
 Viento del N
Viento: N 11 km/h
Temperatura: 18°C
Rocío: 8°C
Humedad: 52%
Barómetro: 1018 hPa
Resumen: Despejado
Visibility: greater than 10 km
2021/08/02 21:00 LEVD 022100Z AUTO 36006KT CAVOK 18/08 Q1018
LESA - Salamanca (civ/M, Spain
Distance from station: ONO 349km
Actualización: Mon, 02-Aug-2021 11:00pm CEST
Despejado
Despejado
 Viento del varies
Viento: varies 2 km/h
Temperatura: 20°C
Rocío: 11°C
Humedad: 56%
Barómetro: 1017 hPa
Resumen: Despejado
Visibility: greater than 10 km
2021/08/02 21:00 LESA 022100Z AUTO VRB01KT CAVOK 20/11 Q1017
 
LEXJ - Santander/Paraya, Spain
Distance from station: NNO 247km
Actualización: Mon, 02-Aug-2021 11:00pm CEST
Muy nuboso
Muy nuboso
 Viento del O
Viento: O 4 km/h
Temperatura: 18°C
Rocío: 16°C
Humedad: 88%
Barómetro: 1019 hPa
Clouds: Muy nuboso
Visibility: 10 km
Cloud details: Few Clouds 671 m
Muy nuboso 1006 m
2021/08/02 21:00 LEXJ 022100Z 28002KT 9999 FEW022 BKN033 18/16 Q1019
LEAS - Asturias/Aviles, Spain
Distance from station: NO 214km
Actualización: Mon, 02-Aug-2021 11:00pm CEST
Parcialmente nuboso
Parcialmente nuboso
 Viento del calm
Viento: Calma
Temperatura: 18°C
Rocío: 15°C
Humedad: 83%
Barómetro: 1020 hPa
Clouds: Parcialmente nuboso
Visibility: 10 km
Cloud details: Parcialmente nuboso 671 m
Parcialmente nuboso 1219 m
2021/08/02 21:00 LEAS 022100Z 00000KT 9999 SCT022 SCT040 18/15 Q1020 NOSIG
 
LECO - La Coruna/Alvedr, Spain
Distance from station: ONO 222km
Actualización: Mon, 02-Aug-2021 11:00pm CEST
Despejado
Despejado
 Viento del N
Viento: N 7 km/h
Temperatura: 18°C
Rocío: 15°C
Humedad: 83%
Barómetro: 1020 hPa
Resumen: Despejado
Visibility: greater than 10 km
2021/08/02 21:00 LECO 022100Z 35004KT 320V030 CAVOK 18/15 Q1020 NOSIG
LEVX - Vigo/Peinador, Spain
Distance from station: O 214km
Actualización: Mon, 02-Aug-2021 11:00pm CEST
Despejado
Despejado
 Viento del N
Viento: N 15 km/h
Temperatura: 18°C
Rocío: 13°C
Humedad: 73%
Barómetro: 1018 hPa
Resumen: Despejado
Visibility: greater than 10 km
2021/08/02 21:00 LEVX 022100Z 01008KT CAVOK 18/13 Q1018 NOSIG